sensor_id;sensor_type;location;lat;lon;timestamp;P1;durP1;ratioP1;P2;durP2;ratioP2
14472;SDS011;7322;50.872;4.386;2023-03-11T00:01:22;1.60;;;1.13;;
14472;SDS011;7322;50.872;4.386;2023-03-11T00:03:50;1.70;;;1.23;;
14472;SDS011;7322;50.872;4.386;2023-03-11T00:06:17;1.83;;;1.57;;
14472;SDS011;7322;50.872;4.386;2023-03-11T00:08:47;1.80;;;1.40;;
14472;SDS011;7322;50.872;4.386;2023-03-11T00:11:17;2.33;;;1.57;;
14472;SDS011;7322;50.872;4.386;2023-03-11T00:13:50;2.00;;;1.50;;
14472;SDS011;7322;50.872;4.386;2023-03-11T00:16:18;2.03;;;1.60;;
14472;SDS011;7322;50.872;4.386;2023-03-11T00:18:45;2.10;;;1.57;;
14472;SDS011;7322;50.872;4.386;2023-03-11T00:21:17;1.90;;;1.37;;
14472;SDS011;7322;50.872;4.386;2023-03-11T00:23:45;2.03;;;1.40;;
14472;SDS011;7322;50.872;4.386;2023-03-11T00:26:13;1.67;;;1.30;;
14472;SDS011;7322;50.872;4.386;2023-03-11T00:28:40;2.17;;;1.30;;
14472;SDS011;7322;50.872;4.386;2023-03-11T00:31:11;1.77;;;1.20;;
14472;SDS011;7322;50.872;4.386;2023-03-11T00:33:39;1.90;;;1.23;;
14472;SDS011;7322;50.872;4.386;2023-03-11T00:36:19;1.50;;;1.33;;
14472;SDS011;7322;50.872;4.386;2023-03-11T00:38:50;2.13;;;1.50;;
14472;SDS011;7322;50.872;4.386;2023-03-11T00:41:28;1.40;;;1.20;;
14472;SDS011;7322;50.872;4.386;2023-03-11T00:43:56;1.87;;;1.20;;
14472;SDS011;7322;50.872;4.386;2023-03-11T00:46:27;1.73;;;1.60;;
14472;SDS011;7322;50.872;4.386;2023-03-11T00:48:59;1.30;;;1.20;;
14472;SDS011;7322;50.872;4.386;2023-03-11T00:51:26;2.03;;;1.30;;
14472;SDS011;7322;50.872;4.386;2023-03-11T00:53:54;2.20;;;1.70;;
14472;SDS011;7322;50.872;4.386;2023-03-11T00:56:22;1.33;;;1.13;;
14472;SDS011;7322;50.872;4.386;2023-03-11T00:59:02;1.70;;;1.30;;
14472;SDS011;7322;50.872;4.386;2023-03-11T01:04:05;1.63;;;1.27;;
14472;SDS011;7322;50.872;4.386;2023-03-11T01:06:32;2.43;;;1.60;;
14472;SDS011;7322;50.872;4.386;2023-03-11T01:09:01;1.53;;;1.43;;
14472;SDS011;7322;50.872;4.386;2023-03-11T01:11:30;1.70;;;1.40;;
14472;SDS011;7322;50.872;4.386;2023-03-11T01:13:59;1.83;;;1.30;;
14472;SDS011;7322;50.872;4.386;2023-03-11T01:16:26;1.37;;;1.10;;
14472;SDS011;7322;50.872;4.386;2023-03-11T01:19:01;1.40;;;1.13;;
14472;SDS011;7322;50.872;4.386;2023-03-11T01:21:29;1.50;;;1.40;;
14472;SDS011;7322;50.872;4.386;2023-03-11T01:23:58;2.33;;;1.47;;
14472;SDS011;7322;50.872;4.386;2023-03-11T01:26:25;1.30;;;1.20;;
14472;SDS011;7322;50.872;4.386;2023-03-11T01:28:52;1.40;;;1.20;;
14472;SDS011;7322;50.872;4.386;2023-03-11T01:31:26;1.30;;;1.20;;
14472;SDS011;7322;50.872;4.386;2023-03-11T01:33:55;1.73;;;1.23;;
14472;SDS011;7322;50.872;4.386;2023-03-11T01:36:23;1.97;;;1.40;;
14472;SDS011;7322;50.872;4.386;2023-03-11T01:38:52;1.40;;;1.23;;
14472;SDS011;7322;50.872;4.386;2023-03-11T01:41:20;1.37;;;1.20;;
14472;SDS011;7322;50.872;4.386;2023-03-11T01:43:49;1.77;;;1.20;;
14472;SDS011;7322;50.872;4.386;2023-03-11T01:46:21;1.47;;;1.20;;
14472;SDS011;7322;50.872;4.386;2023-03-11T01:48:51;1.37;;;1.10;;
14472;SDS011;7322;50.872;4.386;2023-03-11T01:51:30;2.27;;;1.30;;
14472;SDS011;7322;50.872;4.386;2023-03-11T01:54:00;1.30;;;1.20;;
14472;SDS011;7322;50.872;4.386;2023-03-11T01:56:31;2.30;;;1.47;;
14472;SDS011;7322;50.872;4.386;2023-03-11T01:59:00;1.67;;;1.20;;
14472;SDS011;7322;50.872;4.386;2023-03-11T02:01:29;1.80;;;1.50;;
14472;SDS011;7322;50.872;4.386;2023-03-11T02:04:02;1.53;;;1.27;;
14472;SDS011;7322;50.872;4.386;2023-03-11T02:06:33;1.63;;;1.20;;
14472;SDS011;7322;50.872;4.386;2023-03-11T02:09:03;1.60;;;1.40;;
14472;SDS011;7322;50.872;4.386;2023-03-11T02:11:31;2.07;;;1.40;;
14472;SDS011;7322;50.872;4.386;2023-03-11T02:14:02;1.53;;;1.30;;
14472;SDS011;7322;50.872;4.386;2023-03-11T02:16:32;1.40;;;1.30;;
14472;SDS011;7322;50.872;4.386;2023-03-11T02:19:04;1.30;;;1.20;;
14472;SDS011;7322;50.872;4.386;2023-03-11T02:21:41;1.50;;;1.30;;
14472;SDS011;7322;50.872;4.386;2023-03-11T02:24:10;1.93;;;1.30;;
14472;SDS011;7322;50.872;4.386;2023-03-11T02:26:48;1.83;;;1.50;;
14472;SDS011;7322;50.872;4.386;2023-03-11T02:29:19;1.40;;;1.20;;
14472;SDS011;7322;50.872;4.386;2023-03-11T02:31:47;2.07;;;1.33;;
14472;SDS011;7322;50.872;4.386;2023-03-11T02:34:20;2.20;;;1.30;;
14472;SDS011;7322;50.872;4.386;2023-03-11T02:36:51;2.20;;;1.30;;
14472;SDS011;7322;50.872;4.386;2023-03-11T02:39:27;2.23;;;1.40;;
14472;SDS011;7322;50.872;4.386;2023-03-11T02:42:01;1.67;;;1.20;;
14472;SDS011;7322;50.872;4.386;2023-03-11T02:44:32;1.43;;;1.10;;
14472;SDS011;7322;50.872;4.386;2023-03-11T02:47:02;2.30;;;1.40;;
14472;SDS011;7322;50.872;4.386;2023-03-11T02:49:30;1.73;;;1.30;;
14472;SDS011;7322;50.872;4.386;2023-03-11T02:51:58;1.57;;;1.10;;
14472;SDS011;7322;50.872;4.386;2023-03-11T02:54:32;1.83;;;1.10;;
14472;SDS011;7322;50.872;4.386;2023-03-11T02:57:02;1.93;;;1.13;;
14472;SDS011;7322;50.872;4.386;2023-03-11T02:59:30;1.80;;;1.20;;
14472;SDS011;7322;50.872;4.386;2023-03-11T03:01:58;1.63;;;1.20;;
14472;SDS011;7322;50.872;4.386;2023-03-11T03:06:56;1.10;;;1.00;;
14472;SDS011;7322;50.872;4.386;2023-03-11T03:09:23;1.30;;;1.20;;
14472;SDS011;7322;50.872;4.386;2023-03-11T03:11:55;2.07;;;1.30;;
14472;SDS011;7322;50.872;4.386;2023-03-11T03:14:25;2.97;;;1.30;;
14472;SDS011;7322;50.872;4.386;2023-03-11T03:16:54;2.43;;;1.33;;
14472;SDS011;7322;50.872;4.386;2023-03-11T03:19:24;1.33;;;1.10;;
14472;SDS011;7322;50.872;4.386;2023-03-11T03:21:51;1.93;;;1.20;;
14472;SDS011;7322;50.872;4.386;2023-03-11T03:24:19;2.17;;;1.40;;
14472;SDS011;7322;50.872;4.386;2023-03-11T03:26:46;1.90;;;1.10;;
14472;SDS011;7322;50.872;4.386;2023-03-11T03:29:13;1.53;;;1.43;;
14472;SDS011;7322;50.872;4.386;2023-03-11T03:31:43;1.60;;;1.40;;
14472;SDS011;7322;50.872;4.386;2023-03-11T03:34:12;1.20;;;1.10;;
14472;SDS011;7322;50.872;4.386;2023-03-11T03:36:41;1.50;;;1.20;;
14472;SDS011;7322;50.872;4.386;2023-03-11T03:39:09;2.37;;;1.30;;
14472;SDS011;7322;50.872;4.386;2023-03-11T03:41:36;1.10;;;1.00;;
14472;SDS011;7322;50.872;4.386;2023-03-11T03:44:05;1.17;;;1.00;;
14472;SDS011;7322;50.872;4.386;2023-03-11T03:46:32;1.97;;;1.00;;
14472;SDS011;7322;50.872;4.386;2023-03-11T03:49:04;1.37;;;1.00;;
14472;SDS011;7322;50.872;4.386;2023-03-11T03:51:32;1.87;;;1.37;;
14472;SDS011;7322;50.872;4.386;2023-03-11T03:54:00;1.73;;;1.20;;
14472;SDS011;7322;50.872;4.386;2023-03-11T03:56:30;1.60;;;1.30;;
14472;SDS011;7322;50.872;4.386;2023-03-11T03:58:57;2.30;;;1.20;;
14472;SDS011;7322;50.872;4.386;2023-03-11T04:01:24;1.50;;;1.20;;
14472;SDS011;7322;50.872;4.386;2023-03-11T04:03:57;2.50;;;1.27;;
14472;SDS011;7322;50.872;4.386;2023-03-11T04:06:26;1.57;;;1.20;;
14472;SDS011;7322;50.872;4.386;2023-03-11T04:08:55;2.33;;;1.50;;
14472;SDS011;7322;50.872;4.386;2023-03-11T04:11:22;1.40;;;1.30;;
14472;SDS011;7322;50.872;4.386;2023-03-11T04:13:49;1.93;;;1.47;;
14472;SDS011;7322;50.872;4.386;2023-03-11T04:16:17;1.50;;;1.20;;
14472;SDS011;7322;50.872;4.386;2023-03-11T04:18:46;2.03;;;1.10;;
14472;SDS011;7322;50.872;4.386;2023-03-11T04:21:15;1.17;;;1.00;;
14472;SDS011;7322;50.872;4.386;2023-03-11T04:23:49;1.70;;;1.30;;
14472;SDS011;7322;50.872;4.386;2023-03-11T04:26:20;1.40;;;1.00;;
14472;SDS011;7322;50.872;4.386;2023-03-11T04:28:48;2.13;;;1.23;;
14472;SDS011;7322;50.872;4.386;2023-03-11T04:31:15;1.20;;;1.10;;
14472;SDS011;7322;50.872;4.386;2023-03-11T04:33:42;1.17;;;1.07;;
14472;SDS011;7322;50.872;4.386;2023-03-11T04:36:10;1.30;;;1.20;;
14472;SDS011;7322;50.872;4.386;2023-03-11T04:38:38;1.27;;;1.07;;
14472;SDS011;7322;50.872;4.386;2023-03-11T04:41:12;1.37;;;1.10;;
14472;SDS011;7322;50.872;4.386;2023-03-11T04:43:41;1.17;;;1.00;;
14472;SDS011;7322;50.872;4.386;2023-03-11T04:46:08;1.80;;;1.10;;
14472;SDS011;7322;50.872;4.386;2023-03-11T04:48:37;1.20;;;1.00;;
14472;SDS011;7322;50.872;4.386;2023-03-11T04:51:07;1.37;;;1.00;;
14472;SDS011;7322;50.872;4.386;2023-03-11T04:53:38;1.30;;;1.00;;
14472;SDS011;7322;50.872;4.386;2023-03-11T04:56:07;1.60;;;1.03;;
14472;SDS011;7322;50.872;4.386;2023-03-11T04:58:36;1.60;;;1.20;;
14472;SDS011;7322;50.872;4.386;2023-03-11T05:03:37;1.50;;;1.03;;
14472;SDS011;7322;50.872;4.386;2023-03-11T05:06:05;1.20;;;1.00;;
14472;SDS011;7322;50.872;4.386;2023-03-11T05:08:33;1.10;;;1.00;;
14472;SDS011;7322;50.872;4.386;2023-03-11T05:11:03;1.13;;;1.00;;
14472;SDS011;7322;50.872;4.386;2023-03-11T05:13:32;2.43;;;1.40;;
14472;SDS011;7322;50.872;4.386;2023-03-11T05:16:01;2.63;;;1.37;;
14472;SDS011;7322;50.872;4.386;2023-03-11T05:18:31;2.43;;;1.20;;
14472;SDS011;7322;50.872;4.386;2023-03-11T05:20:58;1.40;;;1.03;;
14472;SDS011;7322;50.872;4.386;2023-03-11T05:23:26;1.80;;;1.30;;
14472;SDS011;7322;50.872;4.386;2023-03-11T05:25:54;1.63;;;1.10;;
14472;SDS011;7322;50.872;4.386;2023-03-11T05:28:28;1.03;;;0.97;;
14472;SDS011;7322;50.872;4.386;2023-03-11T05:30:55;2.43;;;1.37;;
14472;SDS011;7322;50.872;4.386;2023-03-11T05:33:28;1.17;;;1.00;;
14472;SDS011;7322;50.872;4.386;2023-03-11T05:36:02;1.67;;;1.07;;
14472;SDS011;7322;50.872;4.386;2023-03-11T05:41:09;1.30;;;1.20;;
14472;SDS011;7322;50.872;4.386;2023-03-11T05:43:39;1.20;;;0.97;;
14472;SDS011;7322;50.872;4.386;2023-03-11T05:46:07;1.10;;;1.00;;
14472;SDS011;7322;50.872;4.386;2023-03-11T05:48:38;1.30;;;1.10;;
14472;SDS011;7322;50.872;4.386;2023-03-11T05:51:05;1.33;;;1.07;;
14472;SDS011;7322;50.872;4.386;2023-03-11T05:53:35;1.43;;;1.00;;
14472;SDS011;7322;50.872;4.386;2023-03-11T05:56:03;1.40;;;1.10;;
14472;SDS011;7322;50.872;4.386;2023-03-11T05:58:32;1.50;;;1.20;;
14472;SDS011;7322;50.872;4.386;2023-03-11T06:01:00;1.37;;;1.10;;
14472;SDS011;7322;50.872;4.386;2023-03-11T06:03:27;2.40;;;1.00;;
14472;SDS011;7322;50.872;4.386;2023-03-11T06:05:58;1.47;;;1.00;;
14472;SDS011;7322;50.872;4.386;2023-03-11T06:08:25;1.63;;;1.30;;
14472;SDS011;7322;50.872;4.386;2023-03-11T06:11:00;1.23;;;1.13;;
14472;SDS011;7322;50.872;4.386;2023-03-11T06:13:30;1.57;;;1.17;;
14472;SDS011;7322;50.872;4.386;2023-03-11T06:15:57;1.20;;;0.97;;
14472;SDS011;7322;50.872;4.386;2023-03-11T06:18:25;2.50;;;1.23;;
14472;SDS011;7322;50.872;4.386;2023-03-11T06:20:53;1.43;;;1.10;;
14472;SDS011;7322;50.872;4.386;2023-03-11T06:23:29;2.10;;;1.10;;
14472;SDS011;7322;50.872;4.386;2023-03-11T06:25:57;1.47;;;1.00;;
14472;SDS011;7322;50.872;4.386;2023-03-11T06:28:27;3.10;;;1.10;;
14472;SDS011;7322;50.872;4.386;2023-03-11T06:30:54;1.43;;;1.10;;
14472;SDS011;7322;50.872;4.386;2023-03-11T06:33:25;2.10;;;1.07;;
14472;SDS011;7322;50.872;4.386;2023-03-11T06:35:57;2.23;;;1.17;;
14472;SDS011;7322;50.872;4.386;2023-03-11T06:38:29;2.37;;;1.30;;
14472;SDS011;7322;50.872;4.386;2023-03-11T06:40:58;2.00;;;1.10;;
14472;SDS011;7322;50.872;4.386;2023-03-11T06:43:30;2.80;;;1.30;;
14472;SDS011;7322;50.872;4.386;2023-03-11T06:46:07;1.40;;;1.10;;
14472;SDS011;7322;50.872;4.386;2023-03-11T06:48:37;2.37;;;1.00;;
14472;SDS011;7322;50.872;4.386;2023-03-11T06:51:08;3.03;;;1.40;;
14472;SDS011;7322;50.872;4.386;2023-03-11T06:53:37;2.53;;;1.50;;
14472;SDS011;7322;50.872;4.386;2023-03-11T06:56:08;2.77;;;1.30;;
14472;SDS011;7322;50.872;4.386;2023-03-11T06:58:38;1.20;;;1.00;;
14472;SDS011;7322;50.872;4.386;2023-03-11T07:01:06;3.50;;;1.47;;
14472;SDS011;7322;50.872;4.386;2023-03-11T07:03:36;2.90;;;1.37;;
14472;SDS011;7322;50.872;4.386;2023-03-11T07:06:04;2.93;;;1.37;;
14472;SDS011;7322;50.872;4.386;2023-03-11T07:08:37;1.77;;;1.10;;
14472;SDS011;7322;50.872;4.386;2023-03-11T07:11:10;1.83;;;1.20;;
14472;SDS011;7322;50.872;4.386;2023-03-11T07:13:42;3.57;;;1.43;;
14472;SDS011;7322;50.872;4.386;2023-03-11T07:16:11;1.90;;;1.20;;
14472;SDS011;7322;50.872;4.386;2023-03-11T07:18:42;2.60;;;1.40;;
14472;SDS011;7322;50.872;4.386;2023-03-11T07:21:14;2.13;;;1.10;;
14472;SDS011;7322;50.872;4.386;2023-03-11T07:23:44;1.57;;;1.20;;
14472;SDS011;7322;50.872;4.386;2023-03-11T07:26:13;1.73;;;1.20;;
14472;SDS011;7322;50.872;4.386;2023-03-11T07:28:42;2.10;;;0.90;;
14472;SDS011;7322;50.872;4.386;2023-03-11T07:31:10;1.50;;;1.20;;
14472;SDS011;7322;50.872;4.386;2023-03-11T07:33:40;1.57;;;1.13;;
14472;SDS011;7322;50.872;4.386;2023-03-11T07:36:09;2.30;;;1.30;;
14472;SDS011;7322;50.872;4.386;2023-03-11T07:38:42;4.00;;;1.47;;
14472;SDS011;7322;50.872;4.386;2023-03-11T07:41:11;2.17;;;1.00;;
14472;SDS011;7322;50.872;4.386;2023-03-11T07:43:41;2.00;;;1.10;;
14472;SDS011;7322;50.872;4.386;2023-03-11T07:46:11;2.27;;;1.17;;
14472;SDS011;7322;50.872;4.386;2023-03-11T07:48:42;1.73;;;1.17;;
14472;SDS011;7322;50.872;4.386;2023-03-11T07:51:12;3.57;;;1.13;;
14472;SDS011;7322;50.872;4.386;2023-03-11T07:53:43;1.13;;;0.90;;
14472;SDS011;7322;50.872;4.386;2023-03-11T07:56:11;2.10;;;1.20;;
14472;SDS011;7322;50.872;4.386;2023-03-11T07:58:42;1.30;;;1.20;;
14472;SDS011;7322;50.872;4.386;2023-03-11T08:01:12;1.40;;;1.00;;
14472;SDS011;7322;50.872;4.386;2023-03-11T08:03:41;1.77;;;1.27;;
14472;SDS011;7322;50.872;4.386;2023-03-11T08:06:15;1.00;;;0.90;;
14472;SDS011;7322;50.872;4.386;2023-03-11T08:08:45;3.10;;;1.33;;
14472;SDS011;7322;50.872;4.386;2023-03-11T08:11:15;2.47;;;1.20;;
14472;SDS011;7322;50.872;4.386;2023-03-11T08:13:43;1.87;;;1.10;;
14472;SDS011;7322;50.872;4.386;2023-03-11T08:16:12;1.83;;;1.20;;
14472;SDS011;7322;50.872;4.386;2023-03-11T08:18:46;2.40;;;1.10;;
14472;SDS011;7322;50.872;4.386;2023-03-11T08:21:18;1.80;;;1.17;;
14472;SDS011;7322;50.872;4.386;2023-03-11T08:23:48;2.70;;;1.10;;
14472;SDS011;7322;50.872;4.386;2023-03-11T08:26:16;1.63;;;1.03;;
14472;SDS011;7322;50.872;4.386;2023-03-11T08:28:45;3.50;;;1.10;;
14472;SDS011;7322;50.872;4.386;2023-03-11T08:31:12;3.90;;;1.20;;
14472;SDS011;7322;50.872;4.386;2023-03-11T08:33:41;1.43;;;1.10;;
14472;SDS011;7322;50.872;4.386;2023-03-11T08:36:09;2.20;;;1.10;;
14472;SDS011;7322;50.872;4.386;2023-03-11T08:38:38;3.03;;;1.30;;
14472;SDS011;7322;50.872;4.386;2023-03-11T08:41:06;4.50;;;1.40;;
14472;SDS011;7322;50.872;4.386;2023-03-11T08:43:35;2.80;;;1.40;;
14472;SDS011;7322;50.872;4.386;2023-03-11T08:46:04;5.30;;;1.47;;
14472;SDS011;7322;50.872;4.386;2023-03-11T08:48:33;7.23;;;1.80;;
14472;SDS011;7322;50.872;4.386;2023-03-11T08:51:01;5.70;;;1.30;;
14472;SDS011;7322;50.872;4.386;2023-03-11T08:53:33;4.73;;;1.70;;
14472;SDS011;7322;50.872;4.386;2023-03-11T08:56:03;3.50;;;2.07;;
14472;SDS011;7322;50.872;4.386;2023-03-11T08:58:32;3.10;;;1.50;;
14472;SDS011;7322;50.872;4.386;2023-03-11T09:01:00;5.53;;;1.50;;
14472;SDS011;7322;50.872;4.386;2023-03-11T09:03:29;5.23;;;1.73;;
14472;SDS011;7322;50.872;4.386;2023-03-11T09:05:57;6.53;;;1.67;;
14472;SDS011;7322;50.872;4.386;2023-03-11T09:08:25;3.23;;;1.70;;
14472;SDS011;7322;50.872;4.386;2023-03-11T09:10:53;2.73;;;1.60;;
14472;SDS011;7322;50.872;4.386;2023-03-11T09:13:22;3.17;;;1.77;;
14472;SDS011;7322;50.872;4.386;2023-03-11T09:15:49;3.33;;;1.70;;
14472;SDS011;7322;50.872;4.386;2023-03-11T09:18:17;5.00;;;1.60;;
14472;SDS011;7322;50.872;4.386;2023-03-11T09:20:44;3.73;;;1.60;;
14472;SDS011;7322;50.872;4.386;2023-03-11T09:23:13;3.47;;;1.70;;
14472;SDS011;7322;50.872;4.386;2023-03-11T09:25:41;3.90;;;1.60;;
14472;SDS011;7322;50.872;4.386;2023-03-11T09:28:09;3.83;;;1.60;;
14472;SDS011;7322;50.872;4.386;2023-03-11T09:30:41;2.93;;;1.70;;
14472;SDS011;7322;50.872;4.386;2023-03-11T09:33:10;2.00;;;1.70;;
14472;SDS011;7322;50.872;4.386;2023-03-11T09:35:37;3.20;;;1.47;;
14472;SDS011;7322;50.872;4.386;2023-03-11T09:38:07;3.17;;;1.63;;
14472;SDS011;7322;50.872;4.386;2023-03-11T09:40:38;5.43;;;1.70;;
14472;SDS011;7322;50.872;4.386;2023-03-11T09:43:19;3.10;;;1.70;;
14472;SDS011;7322;50.872;4.386;2023-03-11T09:46:03;5.23;;;1.73;;
14472;SDS011;7322;50.872;4.386;2023-03-11T09:48:41;4.23;;;1.60;;
14472;SDS011;7322;50.872;4.386;2023-03-11T09:51:15;4.33;;;1.70;;
14472;SDS011;7322;50.872;4.386;2023-03-11T09:53:50;2.77;;;1.50;;
14472;SDS011;7322;50.872;4.386;2023-03-11T09:56:21;2.70;;;1.50;;
14472;SDS011;7322;50.872;4.386;2023-03-11T09:58:51;2.73;;;1.40;;
14472;SDS011;7322;50.872;4.386;2023-03-11T10:01:26;4.13;;;1.90;;
14472;SDS011;7322;50.872;4.386;2023-03-11T10:03:56;3.40;;;1.50;;
14472;SDS011;7322;50.872;4.386;2023-03-11T10:06:29;1.67;;;1.30;;
14472;SDS011;7322;50.872;4.386;2023-03-11T10:08:58;2.80;;;1.57;;
14472;SDS011;7322;50.872;4.386;2023-03-11T10:11:38;3.27;;;1.80;;
14472;SDS011;7322;50.872;4.386;2023-03-11T10:14:13;2.20;;;1.40;;
14472;SDS011;7322;50.872;4.386;2023-03-11T10:16:55;4.00;;;1.43;;
14472;SDS011;7322;50.872;4.386;2023-03-11T10:19:29;2.47;;;1.50;;
14472;SDS011;7322;50.872;4.386;2023-03-11T10:22:06;3.33;;;1.50;;
14472;SDS011;7322;50.872;4.386;2023-03-11T10:24:43;3.23;;;1.57;;
14472;SDS011;7322;50.872;4.386;2023-03-11T10:27:27;4.47;;;1.50;;
14472;SDS011;7322;50.872;4.386;2023-03-11T10:29:59;3.77;;;1.63;;
14472;SDS011;7322;50.872;4.386;2023-03-11T10:32:38;3.27;;;1.50;;
14472;SDS011;7322;50.872;4.386;2023-03-11T10:35:16;2.63;;;1.50;;
14472;SDS011;7322;50.872;4.386;2023-03-11T10:37:47;5.47;;;2.00;;
14472;SDS011;7322;50.872;4.386;2023-03-11T10:40:23;3.87;;;1.60;;
14472;SDS011;7322;50.872;4.386;2023-03-11T10:42:57;4.40;;;1.80;;
14472;SDS011;7322;50.872;4.386;2023-03-11T10:45:28;4.43;;;1.67;;
14472;SDS011;7322;50.872;4.386;2023-03-11T10:48:10;4.17;;;1.83;;
14472;SDS011;7322;50.872;4.386;2023-03-11T10:50:45;3.83;;;1.50;;
14472;SDS011;7322;50.872;4.386;2023-03-11T10:53:18;4.47;;;1.87;;
14472;SDS011;7322;50.872;4.386;2023-03-11T10:55:47;4.47;;;1.80;;
14472;SDS011;7322;50.872;4.386;2023-03-11T10:58:18;4.43;;;1.70;;
14472;SDS011;7322;50.872;4.386;2023-03-11T11:03:41;4.70;;;1.73;;
14472;SDS011;7322;50.872;4.386;2023-03-11T11:06:17;3.43;;;1.50;;
14472;SDS011;7322;50.872;4.386;2023-03-11T11:08:46;5.87;;;1.70;;
14472;SDS011;7322;50.872;4.386;2023-03-11T11:11:20;4.00;;;1.70;;
14472;SDS011;7322;50.872;4.386;2023-03-11T11:13:59;4.47;;;1.30;;
14472;SDS011;7322;50.872;4.386;2023-03-11T11:16:27;6.30;;;1.87;;
14472;SDS011;7322;50.872;4.386;2023-03-11T11:19:01;4.10;;;1.70;;
14472;SDS011;7322;50.872;4.386;2023-03-11T11:21:32;4.47;;;1.60;;
14472;SDS011;7322;50.872;4.386;2023-03-11T11:24:14;4.30;;;1.50;;
14472;SDS011;7322;50.872;4.386;2023-03-11T11:27:03;5.40;;;1.53;;
14472;SDS011;7322;50.872;4.386;2023-03-11T11:29:31;3.77;;;1.70;;
14472;SDS011;7322;50.872;4.386;2023-03-11T11:32:14;4.63;;;1.70;;
14472;SDS011;7322;50.872;4.386;2023-03-11T11:37:34;2.97;;;1.50;;
14472;SDS011;7322;50.872;4.386;2023-03-11T11:40:05;3.70;;;1.50;;
14472;SDS011;7322;50.872;4.386;2023-03-11T11:42:44;4.10;;;1.80;;
14472;SDS011;7322;50.872;4.386;2023-03-11T11:45:15;3.40;;;1.60;;
14472;SDS011;7322;50.872;4.386;2023-03-11T11:47:53;2.83;;;1.53;;
14472;SDS011;7322;50.872;4.386;2023-03-11T11:50:33;3.43;;;1.77;;
14472;SDS011;7322;50.872;4.386;2023-03-11T11:53:03;4.10;;;1.43;;
14472;SDS011;7322;50.872;4.386;2023-03-11T11:55:40;3.17;;;1.50;;
14472;SDS011;7322;50.872;4.386;2023-03-11T11:58:12;5.10;;;1.63;;
14472;SDS011;7322;50.872;4.386;2023-03-11T12:00:41;4.77;;;1.87;;
14472;SDS011;7322;50.872;4.386;2023-03-11T12:03:22;4.07;;;1.50;;
14472;SDS011;7322;50.872;4.386;2023-03-11T12:06:10;3.17;;;1.70;;
14472;SDS011;7322;50.872;4.386;2023-03-11T12:08:50;1.77;;;1.10;;
14472;SDS011;7322;50.872;4.386;2023-03-11T12:11:25;4.57;;;1.57;;
14472;SDS011;7322;50.872;4.386;2023-03-11T12:14:00;3.53;;;1.77;;
14472;SDS011;7322;50.872;4.386;2023-03-11T12:16:38;3.50;;;1.50;;
14472;SDS011;7322;50.872;4.386;2023-03-11T12:19:19;2.20;;;1.70;;
14472;SDS011;7322;50.872;4.386;2023-03-11T12:25:00;3.03;;;1.33;;
14472;SDS011;7322;50.872;4.386;2023-03-11T12:30:21;3.60;;;1.50;;
14472;SDS011;7322;50.872;4.386;2023-03-11T12:32:56;2.17;;;1.40;;
14472;SDS011;7322;50.872;4.386;2023-03-11T12:35:27;2.10;;;1.40;;
14472;SDS011;7322;50.872;4.386;2023-03-11T12:38:14;4.10;;;1.70;;
14472;SDS011;7322;50.872;4.386;2023-03-11T12:41:03;3.53;;;1.57;;
14472;SDS011;7322;50.872;4.386;2023-03-11T12:49:28;3.80;;;1.83;;
14472;SDS011;7322;50.872;4.386;2023-03-11T12:52:15;2.60;;;1.50;;
14472;SDS011;7322;50.872;4.386;2023-03-11T13:01:11;1.83;;;1.30;;
14472;SDS011;7322;50.872;4.386;2023-03-11T13:04:03;3.30;;;1.50;;
14472;SDS011;7322;50.872;4.386;2023-03-11T13:07:01;3.87;;;1.50;;
14472;SDS011;7322;50.872;4.386;2023-03-11T13:10:18;2.87;;;1.30;;
14472;SDS011;7322;50.872;4.386;2023-03-11T13:12:58;2.70;;;1.50;;
14472;SDS011;7322;50.872;4.386;2023-03-11T13:15:37;2.27;;;1.50;;
14472;SDS011;7322;50.872;4.386;2023-03-11T13:18:15;2.23;;;1.23;;
14472;SDS011;7322;50.872;4.386;2023-03-11T13:23:26;3.00;;;1.57;;
14472;SDS011;7322;50.872;4.386;2023-03-11T13:29:08;2.17;;;1.47;;
14472;SDS011;7322;50.872;4.386;2023-03-11T13:32:15;1.90;;;1.40;;
14472;SDS011;7322;50.872;4.386;2023-03-11T13:34:54;3.03;;;1.43;;
14472;SDS011;7322;50.872;4.386;2023-03-11T13:37:33;2.53;;;1.50;;
14472;SDS011;7322;50.872;4.386;2023-03-11T13:40:18;2.90;;;1.70;;
14472;SDS011;7322;50.872;4.386;2023-03-11T13:42:56;2.57;;;1.70;;
14472;SDS011;7322;50.872;4.386;2023-03-11T13:45:28;2.20;;;1.60;;
14472;SDS011;7322;50.872;4.386;2023-03-11T13:48:02;3.10;;;1.57;;
14472;SDS011;7322;50.872;4.386;2023-03-11T13:50:35;1.90;;;1.37;;
14472;SDS011;7322;50.872;4.386;2023-03-11T13:53:06;2.07;;;1.20;;
14472;SDS011;7322;50.872;4.386;2023-03-11T13:55:41;3.83;;;1.70;;
14472;SDS011;7322;50.872;4.386;2023-03-11T13:58:18;2.67;;;1.43;;
14472;SDS011;7322;50.872;4.386;2023-03-11T14:00:49;3.00;;;1.40;;
14472;SDS011;7322;50.872;4.386;2023-03-11T14:03:20;2.07;;;1.43;;
14472;SDS011;7322;50.872;4.386;2023-03-11T14:05:50;4.43;;;1.53;;
14472;SDS011;7322;50.872;4.386;2023-03-11T14:08:25;2.97;;;1.80;;
14472;SDS011;7322;50.872;4.386;2023-03-11T14:10:54;2.70;;;1.47;;
14472;SDS011;7322;50.872;4.386;2023-03-11T14:13:23;2.80;;;1.50;;
14472;SDS011;7322;50.872;4.386;2023-03-11T14:15:53;2.80;;;1.57;;
14472;SDS011;7322;50.872;4.386;2023-03-11T14:18:29;2.83;;;1.50;;
14472;SDS011;7322;50.872;4.386;2023-03-11T14:21:03;3.03;;;1.60;;
14472;SDS011;7322;50.872;4.386;2023-03-11T14:23:32;3.00;;;1.50;;
14472;SDS011;7322;50.872;4.386;2023-03-11T14:26:04;3.70;;;1.90;;
14472;SDS011;7322;50.872;4.386;2023-03-11T14:28:34;2.40;;;1.53;;
14472;SDS011;7322;50.872;4.386;2023-03-11T14:31:04;3.57;;;1.47;;
14472;SDS011;7322;50.872;4.386;2023-03-11T14:33:33;2.30;;;1.50;;
14472;SDS011;7322;50.872;4.386;2023-03-11T14:36:01;2.17;;;1.50;;
14472;SDS011;7322;50.872;4.386;2023-03-11T14:38:32;2.87;;;1.60;;
14472;SDS011;7322;50.872;4.386;2023-03-11T14:40:59;2.37;;;1.50;;
14472;SDS011;7322;50.872;4.386;2023-03-11T14:43:30;1.93;;;1.37;;
14472;SDS011;7322;50.872;4.386;2023-03-11T14:46:01;3.13;;;1.50;;
14472;SDS011;7322;50.872;4.386;2023-03-11T14:48:30;2.53;;;1.33;;
14472;SDS011;7322;50.872;4.386;2023-03-11T14:51:03;2.17;;;1.50;;
14472;SDS011;7322;50.872;4.386;2023-03-11T14:53:49;2.93;;;1.40;;
14472;SDS011;7322;50.872;4.386;2023-03-11T14:56:30;2.57;;;1.50;;
14472;SDS011;7322;50.872;4.386;2023-03-11T14:59:04;3.07;;;1.33;;
14472;SDS011;7322;50.872;4.386;2023-03-11T15:01:38;2.43;;;1.60;;
14472;SDS011;7322;50.872;4.386;2023-03-11T15:04:13;2.43;;;1.50;;
14472;SDS011;7322;50.872;4.386;2023-03-11T15:06:51;2.57;;;1.50;;
14472;SDS011;7322;50.872;4.386;2023-03-11T15:09:21;3.17;;;1.53;;
14472;SDS011;7322;50.872;4.386;2023-03-11T15:11:53;3.03;;;1.50;;
14472;SDS011;7322;50.872;4.386;2023-03-11T15:14:23;3.03;;;1.40;;
14472;SDS011;7322;50.872;4.386;2023-03-11T15:16:54;3.83;;;1.50;;
14472;SDS011;7322;50.872;4.386;2023-03-11T15:19:45;3.13;;;1.50;;
14472;SDS011;7322;50.872;4.386;2023-03-11T15:22:23;3.77;;;1.60;;
14472;SDS011;7322;50.872;4.386;2023-03-11T15:24:57;3.43;;;1.50;;
14472;SDS011;7322;50.872;4.386;2023-03-11T15:27:27;3.27;;;1.30;;
14472;SDS011;7322;50.872;4.386;2023-03-11T15:29:56;2.63;;;1.27;;
14472;SDS011;7322;50.872;4.386;2023-03-11T15:32:32;4.13;;;1.50;;
14472;SDS011;7322;50.872;4.386;2023-03-11T15:35:13;2.10;;;1.43;;
14472;SDS011;7322;50.872;4.386;2023-03-11T15:37:44;1.63;;;1.13;;
14472;SDS011;7322;50.872;4.386;2023-03-11T15:40:19;4.27;;;1.43;;
14472;SDS011;7322;50.872;4.386;2023-03-11T15:42:48;2.23;;;1.13;;
14472;SDS011;7322;50.872;4.386;2023-03-11T15:45:36;2.87;;;1.23;;
14472;SDS011;7322;50.872;4.386;2023-03-11T15:48:03;3.93;;;1.43;;
14472;SDS011;7322;50.872;4.386;2023-03-11T15:50:34;4.60;;;1.30;;
14472;SDS011;7322;50.872;4.386;2023-03-11T15:53:01;4.47;;;1.50;;
14472;SDS011;7322;50.872;4.386;2023-03-11T15:55:30;3.70;;;1.67;;
14472;SDS011;7322;50.872;4.386;2023-03-11T15:57:59;4.63;;;1.57;;
14472;SDS011;7322;50.872;4.386;2023-03-11T16:00:30;2.90;;;1.40;;
14472;SDS011;7322;50.872;4.386;2023-03-11T16:02:59;4.17;;;1.40;;
14472;SDS011;7322;50.872;4.386;2023-03-11T16:05:29;2.63;;;1.40;;
14472;SDS011;7322;50.872;4.386;2023-03-11T16:08:01;1.60;;;1.20;;